createdAt,value
2023-02-25T00:01:15.859Z,5.00
2023-02-25T00:03:44.040Z,4.80
2023-02-25T00:06:13.898Z,5.17
2023-02-25T00:08:45.505Z,4.60
2023-02-25T00:11:14.837Z,4.83
2023-02-25T00:13:44.092Z,5.10
2023-02-25T00:16:12.923Z,4.90
2023-02-25T00:18:44.521Z,4.93
2023-02-25T00:21:15.199Z,4.43
2023-02-25T00:23:44.907Z,4.53
2023-02-25T00:26:13.600Z,4.87
2023-02-25T00:28:42.112Z,5.07
2023-02-25T00:31:11.447Z,5.00
2023-02-25T00:33:42.059Z,5.00
2023-02-25T00:36:14.606Z,4.83
2023-02-25T00:38:42.465Z,4.73
2023-02-25T00:41:12.603Z,4.70
2023-02-25T00:43:42.204Z,4.77
2023-02-25T00:46:12.145Z,5.20
2023-02-25T00:48:40.872Z,4.47
2023-02-25T00:51:11.842Z,4.77
2023-02-25T00:53:40.436Z,5.40
2023-02-25T00:56:10.000Z,5.27
2023-02-25T00:58:38.334Z,5.20
2023-02-25T01:01:08.378Z,5.90
2023-02-25T01:03:36.251Z,5.57
2023-02-25T01:06:04.573Z,5.37
2023-02-25T01:08:34.083Z,5.27
2023-02-25T01:11:02.257Z,5.70
2023-02-25T01:13:30.137Z,5.50
2023-02-25T01:15:58.150Z,5.17
2023-02-25T01:18:26.032Z,5.23
2023-02-25T01:20:54.079Z,5.03
2023-02-25T01:23:23.398Z,5.33
2023-02-25T01:25:52.743Z,5.33
2023-02-25T01:28:21.924Z,5.40
2023-02-25T01:30:52.592Z,5.30
2023-02-25T01:33:21.430Z,4.83
2023-02-25T01:35:49.332Z,5.60
2023-02-25T01:38:17.209Z,5.20
2023-02-25T01:40:46.529Z,4.70
2023-02-25T01:43:16.858Z,5.33
2023-02-25T01:45:45.650Z,5.37
2023-02-25T01:48:17.230Z,4.70
2023-02-25T01:50:51.454Z,5.47
2023-02-25T01:53:25.036Z,5.30
2023-02-25T01:55:53.556Z,5.47
2023-02-25T01:58:23.457Z,5.17
2023-02-25T02:00:55.638Z,4.83
2023-02-25T02:03:27.625Z,5.30
2023-02-25T02:06:00.848Z,5.60
2023-02-25T02:08:29.612Z,5.23
2023-02-25T02:10:57.968Z,5.07
2023-02-25T02:13:27.720Z,4.50
2023-02-25T02:16:10.132Z,5.13
2023-02-25T02:18:46.603Z,5.20
2023-02-25T02:21:30.756Z,5.40
2023-02-25T02:24:30.088Z,5.93
2023-02-25T02:27:02.732Z,4.97
2023-02-25T02:30:13.059Z,4.97
2023-02-25T02:32:47.761Z,4.50
2023-02-25T02:35:22.004Z,5.03
2023-02-25T02:38:00.297Z,5.00
2023-02-25T02:40:42.122Z,4.93
2023-02-25T02:43:22.189Z,4.30
2023-02-25T02:45:55.472Z,5.17
2023-02-25T02:48:29.792Z,5.80
2023-02-25T02:51:01.112Z,4.33
2023-02-25T02:53:34.167Z,5.07
2023-02-25T02:56:06.148Z,4.23
2023-02-25T02:58:38.321Z,4.80
2023-02-25T03:01:10.835Z,4.97
2023-02-25T03:03:44.340Z,5.20
2023-02-25T03:06:17.018Z,4.70
2023-02-25T03:08:49.802Z,5.50
2023-02-25T03:11:18.610Z,4.60
2023-02-25T03:13:46.610Z,4.83
2023-02-25T03:16:22.546Z,4.43
2023-02-25T03:18:59.011Z,4.53
2023-02-25T03:21:32.532Z,4.33
2023-02-25T03:24:01.573Z,4.27
2023-02-25T03:26:32.081Z,4.73
2023-02-25T03:29:03.605Z,5.00
2023-02-25T03:31:37.231Z,4.40
2023-02-25T03:34:12.338Z,4.40
2023-02-25T03:36:43.815Z,3.90
2023-02-25T03:39:16.881Z,3.73
2023-02-25T03:41:48.770Z,3.93
2023-02-25T03:44:22.225Z,3.37
2023-02-25T03:46:53.672Z,3.20
2023-02-25T03:49:28.492Z,3.67
2023-02-25T03:52:00.836Z,4.50
2023-02-25T03:54:29.117Z,3.87
2023-02-25T03:56:57.301Z,4.33
2023-02-25T03:59:28.232Z,3.53
2023-02-25T04:01:58.194Z,3.87
2023-02-25T04:04:27.491Z,3.83
2023-02-25T04:06:55.333Z,3.70
2023-02-25T04:09:23.146Z,3.80
2023-02-25T04:11:51.122Z,3.53
2023-02-25T04:14:18.994Z,3.40
2023-02-25T04:16:47.297Z,3.27
2023-02-25T04:19:15.387Z,3.37
2023-02-25T04:21:45.768Z,2.97
2023-02-25T04:24:13.720Z,2.87
2023-02-25T04:26:41.690Z,2.00
2023-02-25T04:29:09.531Z,1.87
2023-02-25T04:31:37.434Z,1.70
2023-02-25T04:34:05.547Z,1.50
2023-02-25T04:36:35.479Z,1.43
2023-02-25T04:39:06.995Z,1.50
2023-02-25T04:41:37.016Z,1.40
2023-02-25T04:44:06.445Z,1.20
2023-02-25T04:46:36.665Z,1.30
2023-02-25T04:49:05.110Z,1.00
2023-02-25T04:51:33.241Z,1.63
2023-02-25T04:55:14.832Z,1.20
2023-02-25T05:02:02.995Z,1.07
2023-02-25T05:04:32.050Z,1.53
2023-02-25T05:06:59.805Z,0.90
2023-02-25T05:09:28.648Z,0.90
2023-02-25T05:11:56.815Z,1.10
2023-02-25T05:14:24.992Z,1.00
2023-02-25T05:16:52.882Z,1.00
2023-02-25T05:19:23.723Z,0.90
2023-02-25T05:21:52.019Z,1.50
2023-02-25T05:24:23.544Z,1.20
2023-02-25T05:26:52.255Z,1.10
2023-02-25T05:29:19.973Z,1.13
2023-02-25T05:31:47.943Z,1.23
2023-02-25T05:34:17.573Z,1.40
2023-02-25T05:36:47.604Z,1.30
2023-02-25T05:39:15.763Z,1.80
2023-02-25T05:41:43.518Z,1.53
2023-02-25T05:44:11.779Z,2.13
2023-02-25T05:46:39.572Z,1.80
2023-02-25T05:49:07.331Z,2.30
2023-02-25T05:51:35.048Z,4.73
2023-02-25T05:54:04.638Z,2.93
2023-02-25T05:56:32.555Z,2.03
2023-02-25T05:59:00.680Z,1.37
2023-02-25T06:01:29.676Z,1.53
2023-02-25T06:03:58.581Z,1.70
2023-02-25T06:06:28.271Z,1.57
2023-02-25T06:08:56.189Z,1.23
2023-02-25T06:11:27.297Z,1.17
2023-02-25T06:13:56.281Z,1.77
2023-02-25T06:16:25.854Z,1.33
2023-02-25T06:18:53.944Z,1.50
2023-02-25T06:21:21.782Z,1.20
2023-02-25T06:23:50.727Z,1.40
2023-02-25T06:26:19.530Z,1.20
2023-02-25T06:28:48.825Z,1.10
2023-02-25T06:31:18.502Z,1.60
2023-02-25T06:33:47.115Z,1.27
2023-02-25T06:36:15.558Z,1.20
2023-02-25T06:38:45.937Z,1.40
2023-02-25T06:41:16.595Z,2.00
2023-02-25T06:43:45.475Z,4.17
2023-02-25T06:46:16.013Z,1.80
2023-02-25T06:48:43.900Z,1.10
2023-02-25T06:51:12.848Z,1.30
2023-02-25T06:53:43.092Z,0.93
2023-02-25T06:56:13.612Z,1.30
2023-02-25T06:58:41.761Z,1.23
2023-02-25T07:01:10.742Z,1.50
2023-02-25T07:03:40.175Z,1.50
2023-02-25T07:06:08.891Z,1.00
2023-02-25T07:08:37.124Z,1.00
2023-02-25T07:11:15.155Z,1.00
2023-02-25T07:13:44.420Z,1.10
2023-02-25T07:16:13.331Z,1.40
2023-02-25T07:18:43.122Z,1.07
2023-02-25T07:21:12.222Z,0.77
2023-02-25T07:23:40.758Z,1.20
2023-02-25T07:26:11.701Z,0.93
2023-02-25T07:28:40.498Z,0.97
2023-02-25T07:31:15.533Z,0.87
2023-02-25T07:33:45.696Z,0.87
2023-02-25T07:36:13.736Z,0.80
2023-02-25T07:38:41.976Z,1.13
2023-02-25T07:41:11.996Z,0.70
2023-02-25T07:43:40.087Z,0.67
2023-02-25T07:46:08.416Z,1.00
2023-02-25T07:48:36.662Z,0.87
2023-02-25T07:51:12.229Z,1.00
2023-02-25T07:53:40.212Z,0.87
2023-02-25T07:56:08.854Z,0.73
2023-02-25T07:58:36.986Z,0.67
2023-02-25T08:01:09.395Z,0.60
2023-02-25T08:03:39.018Z,0.70
2023-02-25T08:06:09.194Z,0.90
2023-02-25T08:08:37.824Z,0.93
2023-02-25T08:11:07.353Z,0.80
2023-02-25T08:13:35.521Z,0.73
2023-02-25T08:16:05.692Z,1.37
2023-02-25T08:18:34.149Z,1.10
2023-02-25T08:21:02.980Z,1.17
2023-02-25T08:23:32.742Z,1.00
2023-02-25T08:26:01.258Z,1.00
2023-02-25T08:28:33.919Z,0.97
2023-02-25T08:31:03.444Z,1.03
2023-02-25T08:33:31.710Z,1.13
2023-02-25T08:36:09.616Z,1.07
2023-02-25T08:38:39.957Z,1.10
2023-02-25T08:41:08.777Z,0.77
2023-02-25T08:43:36.951Z,1.03
2023-02-25T08:46:06.385Z,1.03
2023-02-25T08:48:34.677Z,0.83
2023-02-25T08:51:08.345Z,1.20
2023-02-25T08:53:37.032Z,1.80
2023-02-25T08:56:06.478Z,1.10
2023-02-25T08:58:35.077Z,1.03
2023-02-25T09:01:08.879Z,1.77
2023-02-25T09:03:36.880Z,1.80
2023-02-25T09:06:05.091Z,1.83
2023-02-25T09:08:32.997Z,1.30
2023-02-25T09:11:00.769Z,1.30
2023-02-25T09:13:30.589Z,1.20
2023-02-25T09:15:58.941Z,1.40
2023-02-25T09:18:26.890Z,1.40
2023-02-25T09:20:54.715Z,1.97
2023-02-25T09:23:22.538Z,2.03
2023-02-25T09:25:50.499Z,2.00
2023-02-25T09:28:18.548Z,1.20
2023-02-25T09:30:48.108Z,1.40
2023-02-25T09:33:16.335Z,1.33
2023-02-25T09:35:45.233Z,1.40
2023-02-25T09:38:13.464Z,1.83
2023-02-25T09:40:42.430Z,1.37
2023-02-25T09:43:21.414Z,1.43
2023-02-25T09:45:54.642Z,1.70
2023-02-25T09:48:30.361Z,1.07
2023-02-25T09:51:05.256Z,0.70
2023-02-25T09:53:37.580Z,0.90
2023-02-25T09:56:07.729Z,1.00
2023-02-25T09:58:41.259Z,2.37
2023-02-25T10:01:17.244Z,0.80
2023-02-25T10:03:55.630Z,1.90
2023-02-25T10:06:29.892Z,0.70
2023-02-25T10:09:08.318Z,0.70
2023-02-25T10:11:47.578Z,0.70
2023-02-25T10:14:40.105Z,0.70
2023-02-25T10:17:17.598Z,1.43
2023-02-25T10:20:02.017Z,0.50
2023-02-25T10:22:43.547Z,0.57
2023-02-25T10:25:15.938Z,1.00
2023-02-25T10:27:49.298Z,1.37
2023-02-25T10:30:24.305Z,1.67
2023-02-25T10:32:55.119Z,1.40
2023-02-25T10:35:27.552Z,1.80
2023-02-25T10:37:55.808Z,2.10
2023-02-25T10:40:25.660Z,0.80
2023-02-25T10:43:02.510Z,1.10
2023-02-25T10:45:32.238Z,1.03
2023-02-25T10:48:07.029Z,1.70
2023-02-25T10:50:45.617Z,0.87
2023-02-25T10:53:16.082Z,1.00
2023-02-25T10:55:52.444Z,0.80
2023-02-25T10:58:27.279Z,0.67
2023-02-25T11:00:58.859Z,0.83
2023-02-25T11:03:31.519Z,1.10
2023-02-25T11:06:11.889Z,1.50
2023-02-25T11:08:39.805Z,1.30
2023-02-25T11:11:16.639Z,1.73
2023-02-25T11:13:45.148Z,1.43
2023-02-25T11:16:16.627Z,1.00
2023-02-25T11:18:52.034Z,1.00
2023-02-25T11:21:31.212Z,0.60
2023-02-25T11:24:03.070Z,0.90
2023-02-25T11:26:34.073Z,0.70
2023-02-25T11:29:03.908Z,0.80
2023-02-25T11:31:36.493Z,0.70
2023-02-25T11:34:13.908Z,0.63
2023-02-25T11:36:42.274Z,0.30
2023-02-25T11:39:20.058Z,0.63
2023-02-25T11:41:50.977Z,0.50
2023-02-25T11:44:31.798Z,0.90
2023-02-25T11:47:09.165Z,0.70
2023-02-25T11:49:53.899Z,0.80
2023-02-25T11:52:28.566Z,0.63
2023-02-25T11:55:13.289Z,0.83
2023-02-25T11:57:51.494Z,0.60
2023-02-25T12:00:28.856Z,0.80
2023-02-25T12:03:16.774Z,0.60
2023-02-25T12:05:56.450Z,0.60
2023-02-25T12:08:40.839Z,0.53
2023-02-25T12:11:52.264Z,0.70
2023-02-25T12:15:11.661Z,0.73
2023-02-25T12:21:08.646Z,0.80
2023-02-25T12:24:04.203Z,0.70
2023-02-25T12:26:45.212Z,0.90
2023-02-25T12:29:36.505Z,0.70
2023-02-25T12:32:19.307Z,1.03
2023-02-25T12:35:36.477Z,1.10
2023-02-25T12:38:25.054Z,1.27
2023-02-25T12:41:26.875Z,0.87
2023-02-25T12:44:01.024Z,0.80
2023-02-25T12:46:48.835Z,8.00
2023-02-25T12:49:58.282Z,2.20
2023-02-25T12:52:36.299Z,1.50
2023-02-25T12:55:25.133Z,9.23
2023-02-25T12:58:06.949Z,7.40
2023-02-25T13:00:58.390Z,11.10
2023-02-25T13:03:36.067Z,2.07
2023-02-25T13:06:48.433Z,1.50
2023-02-25T13:09:48.019Z,1.10
2023-02-25T13:12:29.866Z,1.27
2023-02-25T13:15:11.000Z,1.20
2023-02-25T13:18:06.938Z,1.33
2023-02-25T13:20:49.590Z,1.23
2023-02-25T13:23:34.872Z,1.50
2023-02-25T13:26:25.981Z,1.13
2023-02-25T13:29:08.013Z,1.10
2023-02-25T13:31:46.112Z,1.27
2023-02-25T13:34:30.421Z,1.30
2023-02-25T13:37:18.653Z,1.13
2023-02-25T13:40:05.329Z,2.10
2023-02-25T13:43:04.658Z,0.90
2023-02-25T13:45:56.893Z,1.00
2023-02-25T13:48:49.067Z,2.47
2023-02-25T13:51:31.219Z,16.63
2023-02-25T13:54:15.791Z,5.70
2023-02-25T13:56:53.108Z,1.60
2023-02-25T13:59:40.119Z,3.43
2023-02-25T14:02:25.598Z,2.30
2023-02-25T14:05:18.170Z,0.80
2023-02-25T14:08:04.855Z,2.80
2023-02-25T14:10:47.849Z,6.07
2023-02-25T14:13:39.474Z,2.30
2023-02-25T14:16:19.678Z,5.90
2023-02-25T14:19:07.578Z,14.67
2023-02-25T14:22:16.362Z,1.10
2023-02-25T14:24:54.869Z,1.17
2023-02-25T14:27:32.208Z,1.00
2023-02-25T14:30:13.398Z,1.43
2023-02-25T14:32:53.222Z,2.23
2023-02-25T14:35:42.629Z,2.50
2023-02-25T14:38:14.266Z,9.20
2023-02-25T14:40:50.483Z,1.50
2023-02-25T14:43:29.882Z,7.13
2023-02-25T14:46:03.804Z,2.77
2023-02-25T14:48:39.912Z,1.00
2023-02-25T14:51:38.486Z,1.03
2023-02-25T14:55:06.474Z,0.90
2023-02-25T14:58:24.283Z,1.03
2023-02-25T15:01:26.865Z,0.93
2023-02-25T15:04:26.390Z,1.30
2023-02-25T15:07:09.613Z,0.97
2023-02-25T15:10:12.929Z,1.17
2023-02-25T15:13:12.218Z,1.00
2023-02-25T15:16:02.686Z,1.13
2023-02-25T15:19:13.915Z,2.53
2023-02-25T15:21:44.148Z,2.30
2023-02-25T15:24:40.046Z,2.63
2023-02-25T15:27:34.108Z,1.10
2023-02-25T15:30:06.235Z,0.90
2023-02-25T15:32:57.642Z,1.60
2023-02-25T15:35:58.930Z,1.53
2023-02-25T15:38:42.410Z,0.87
2023-02-25T15:41:39.784Z,1.47
2023-02-25T15:44:50.457Z,1.00
2023-02-25T15:47:29.303Z,0.70
2023-02-25T15:49:58.729Z,0.97
2023-02-25T15:52:58.778Z,1.37
2023-02-25T15:55:39.963Z,1.00
2023-02-25T15:58:43.548Z,0.83
2023-02-25T16:01:27.617Z,0.90
2023-02-25T16:03:57.263Z,0.77
2023-02-25T16:06:31.242Z,0.93
2023-02-25T16:09:08.035Z,3.93
2023-02-25T16:11:39.675Z,1.10
2023-02-25T16:14:13.999Z,1.30
2023-02-25T16:16:48.144Z,1.00
2023-02-25T16:19:20.074Z,0.83
2023-02-25T16:21:52.266Z,1.23
2023-02-25T16:24:20.960Z,6.77
2023-02-25T16:26:58.799Z,3.63
2023-02-25T16:29:43.584Z,1.60
2023-02-25T16:32:24.718Z,1.30
2023-02-25T16:35:00.351Z,1.93
2023-02-25T16:37:37.196Z,1.90
2023-02-25T16:40:06.679Z,2.30
2023-02-25T16:42:35.749Z,2.13
2023-02-25T16:45:06.813Z,2.10
2023-02-25T16:47:36.687Z,3.10
2023-02-25T16:50:13.790Z,6.17
2023-02-25T16:52:48.324Z,4.63
2023-02-25T16:55:29.478Z,3.93
2023-02-25T16:58:06.322Z,3.03
2023-02-25T17:00:36.509Z,3.73
2023-02-25T17:03:06.797Z,3.50
2023-02-25T17:05:38.714Z,1.70
2023-02-25T17:08:15.331Z,4.53
2023-02-25T17:10:46.119Z,14.90
2023-02-25T17:13:20.051Z,13.17
2023-02-25T17:15:48.292Z,4.70
2023-02-25T17:18:21.573Z,6.63
2023-02-25T17:20:51.409Z,4.03
2023-02-25T17:23:19.614Z,5.40
2023-02-25T17:25:49.995Z,4.50
2023-02-25T17:28:22.464Z,5.80
2023-02-25T17:30:52.002Z,4.77
2023-02-25T17:33:26.987Z,3.77
2023-02-25T17:35:59.870Z,6.17
2023-02-25T17:38:30.365Z,10.07
2023-02-25T17:40:59.317Z,7.10
2023-02-25T17:43:35.332Z,5.47
2023-02-25T17:46:04.981Z,4.27
2023-02-25T17:48:41.092Z,7.07
2023-02-25T17:51:11.585Z,4.70
2023-02-25T17:53:44.813Z,6.53
2023-02-25T17:56:17.738Z,12.77
2023-02-25T17:58:46.266Z,10.60
2023-02-25T18:01:23.886Z,8.93
2023-02-25T18:03:52.963Z,9.20
2023-02-25T18:06:44.661Z,6.67
2023-02-25T18:09:40.163Z,2.77
2023-02-25T18:12:21.287Z,4.30
2023-02-25T18:14:54.941Z,3.33
2023-02-25T18:17:28.301Z,1.93
2023-02-25T18:19:58.552Z,3.17
2023-02-25T18:22:40.544Z,4.00
2023-02-25T18:25:30.347Z,2.80
2023-02-25T18:27:58.624Z,2.70
2023-02-25T18:30:28.860Z,2.43
2023-02-25T18:32:59.186Z,4.97
2023-02-25T18:35:29.033Z,3.40
2023-02-25T18:37:59.676Z,2.10
2023-02-25T18:40:30.745Z,2.30
2023-02-25T18:42:59.730Z,2.53
2023-02-25T18:45:29.699Z,1.93
2023-02-25T18:47:57.899Z,2.03
2023-02-25T18:50:26.031Z,2.93
2023-02-25T18:52:55.267Z,2.50
2023-02-25T18:55:26.514Z,2.30
2023-02-25T18:57:55.208Z,1.90
2023-02-25T19:00:27.258Z,1.90
2023-02-25T19:02:57.716Z,2.17
2023-02-25T19:05:26.440Z,2.13
2023-02-25T19:07:54.964Z,1.70
2023-02-25T19:10:26.693Z,2.07
2023-02-25T19:13:01.837Z,5.43
2023-02-25T19:15:30.169Z,2.80
2023-02-25T19:17:57.976Z,2.53
2023-02-25T19:20:25.867Z,2.80
2023-02-25T19:22:54.613Z,2.40
2023-02-25T19:25:26.260Z,2.87
2023-02-25T19:27:55.150Z,1.93
2023-02-25T19:30:25.177Z,2.53
2023-02-25T19:32:53.090Z,2.40
2023-02-25T19:35:20.964Z,2.37
2023-02-25T19:37:49.422Z,2.33
2023-02-25T19:40:18.017Z,2.60
2023-02-25T19:42:48.842Z,1.70
2023-02-25T19:45:20.311Z,2.40
2023-02-25T19:47:49.927Z,3.27
2023-02-25T19:50:18.990Z,2.13
2023-02-25T19:52:47.016Z,3.20
2023-02-25T19:55:15.584Z,4.57
2023-02-25T19:57:43.647Z,2.57
2023-02-25T20:00:16.083Z,2.47
2023-02-25T20:02:44.510Z,2.30
2023-02-25T20:05:14.534Z,4.00
2023-02-25T20:07:43.162Z,2.70
2023-02-25T20:10:13.639Z,2.37
2023-02-25T20:12:43.617Z,2.40
2023-02-25T20:15:14.598Z,2.60
2023-02-25T20:17:43.837Z,3.13
2023-02-25T20:20:13.981Z,2.30
2023-02-25T20:22:42.364Z,2.43
2023-02-25T20:25:11.662Z,2.60
2023-02-25T20:27:43.214Z,2.03
2023-02-25T20:30:15.626Z,1.77
2023-02-25T20:32:44.878Z,1.57
2023-02-25T20:35:16.550Z,2.00
2023-02-25T20:37:56.881Z,1.70
2023-02-25T20:40:24.937Z,1.90
2023-02-25T20:42:53.074Z,1.70
2023-02-25T20:45:23.014Z,1.93
2023-02-25T20:47:54.178Z,2.10
2023-02-25T20:50:28.069Z,2.00
2023-02-25T20:52:56.219Z,1.27
2023-02-25T20:55:24.250Z,1.53
2023-02-25T20:57:52.332Z,2.00
2023-02-25T21:00:21.965Z,2.60
2023-02-25T21:02:49.859Z,2.90
2023-02-25T21:05:17.754Z,3.10
2023-02-25T21:07:46.294Z,1.90
2023-02-25T21:10:14.564Z,3.10
2023-02-25T21:12:42.371Z,2.57
2023-02-25T21:15:11.614Z,5.60
2023-02-25T21:17:41.675Z,3.17
2023-02-25T21:20:10.861Z,2.40
2023-02-25T21:22:38.794Z,1.90
2023-02-25T21:25:07.000Z,2.23
2023-02-25T21:27:34.839Z,1.67
2023-02-25T21:30:03.019Z,2.00
2023-02-25T21:32:30.887Z,1.70
2023-02-25T21:35:01.397Z,2.07
2023-02-25T21:37:29.197Z,1.63
2023-02-25T21:39:57.082Z,1.23
2023-02-25T21:42:24.926Z,1.50
2023-02-25T21:44:52.747Z,1.50
2023-02-25T21:47:20.635Z,1.30
2023-02-25T21:49:50.206Z,1.47
2023-02-25T21:52:19.420Z,1.50
2023-02-25T21:54:47.989Z,1.30
2023-02-25T21:57:16.356Z,1.03
2023-02-25T21:59:44.258Z,1.30
2023-02-25T22:02:12.176Z,1.70
2023-02-25T22:04:40.882Z,1.60
2023-02-25T22:07:09.056Z,1.70
2023-02-25T22:09:38.282Z,1.70
2023-02-25T22:12:06.297Z,2.80
2023-02-25T22:14:34.173Z,3.30
2023-02-25T22:17:02.264Z,1.00
2023-02-25T22:19:30.178Z,2.00
2023-02-25T22:21:58.585Z,1.87
2023-02-25T22:24:27.276Z,2.00
2023-02-25T22:26:56.440Z,1.60
2023-02-25T22:29:24.437Z,1.60
2023-02-25T22:31:52.545Z,1.77
2023-02-25T22:34:22.156Z,3.87
2023-02-25T22:36:50.789Z,1.90
2023-02-25T22:39:18.686Z,1.60
2023-02-25T22:41:46.529Z,1.87
2023-02-25T22:44:15.695Z,2.30
2023-02-25T22:46:43.871Z,1.80
2023-02-25T22:49:12.447Z,2.30
2023-02-25T22:51:42.611Z,1.47
2023-02-25T22:54:11.378Z,1.30
2023-02-25T22:56:39.641Z,1.60
2023-02-25T22:59:07.865Z,1.20
2023-02-25T23:01:37.587Z,1.50
2023-02-25T23:04:07.830Z,1.30
2023-02-25T23:06:43.369Z,1.30
2023-02-25T23:09:12.265Z,1.73
2023-02-25T23:11:42.609Z,1.83
2023-02-25T23:14:11.299Z,1.37
2023-02-25T23:16:42.035Z,1.53
2023-02-25T23:19:11.358Z,1.83
2023-02-25T23:21:39.493Z,1.40
2023-02-25T23:24:09.891Z,1.40
2023-02-25T23:26:40.552Z,1.70
2023-02-25T23:29:10.880Z,1.17
2023-02-25T23:31:44.263Z,1.30
2023-02-25T23:34:13.889Z,1.30
2023-02-25T23:36:44.004Z,1.40
2023-02-25T23:39:13.658Z,1.77
2023-02-25T23:44:47.902Z,1.60
2023-02-25T23:47:17.509Z,1.70
2023-02-25T23:49:45.306Z,2.10
2023-02-25T23:52:13.664Z,1.93
2023-02-25T23:54:41.588Z,1.97
2023-02-25T23:57:09.511Z,2.13
2023-02-25T23:59:37.433Z,1.80
